Погода Сан-Педруна 2 недели

Сан-Паулу, Бразилия

12 - 25 апреля
  • 12апреля
    Сегодня
    +19°
    +30°
    Небольшая облачность
    ВремяПогодаТемператураВлажностьДавлениеВетер, м/сВероятность осадков
    00:00Небольшая облачность+22°C88 %714 мм2.4 м/с10 %
    03:00Облачно с прояснениями+20°C96 %713 мм1.6 м/с11 %
    06:00Облачно с прояснениями+19°C98 %714 мм1.3 м/с33 %
    09:00Практически безоблачно+22°C80 %715 мм1.2 м/с37 %
    12:00Практически безоблачно+28°C60 %715 мм1.4 м/с4 %
    15:00Небольшая облачность+30°C50 %713 мм1.6 м/с21 %
    18:00Ясно и безоблачно+27°C57 %712 мм3.4 м/с40 %
    21:00Ясно и безоблачно+24°C71 %714 мм2.7 м/с10 %
  • 13апреля
    Суббота
    +20°
    +31°
    Ясно и безоблачно
    ВремяПогодаТемператураВлажностьДавлениеВетер, м/сВероятность осадков
    00:00Практически безоблачно+22°C85 %714 мм2.0 м/с3 %
    03:00Облачно с прояснениями+20°C91 %713 мм1.4 м/с5 %
    06:00Практически безоблачно+20°C94 %713 мм0.8 м/с5 %
    09:00Практически безоблачно+23°C74 %714 мм2.2 м/с5 %
    12:00Ясно и безоблачно+29°C52 %714 мм2.9 м/с3 %
    15:00Ясно и безоблачно+30°C48 %712 мм2.5 м/с22 %
    18:00Практически безоблачно+28°C63 %711 мм0.8 м/с24 %
    21:00Облачно с прояснениями+24°C75 %712 мм1.3 м/с25 %
  • 14апреля
    Воскресенье
    +20°
    +31°
    Небольшая облачность и лёгкий дождик
    ВремяПогодаТемператураВлажностьДавлениеВетер, м/сВероятность осадков
    00:00Облачно с прояснениями+23°C80 %713 мм1.2 м/с19 %
    03:00Облачно с прояснениями+21°C88 %712 мм1.3 м/с14 %
    06:00Облачно с прояснениями+20°C88 %712 мм1.9 м/с5 %
    09:00Облачно с прояснениями+24°C64 %713 мм2.9 м/с7 %
    12:00Облачно с прояснениями+29°C49 %713 мм2.3 м/с19 %
    15:00Небольшая облачность и лёгкий дождик+30°C46 %711 мм1.3 м/с35 %
    18:00Облачно с прояснениями+27°C58 %711 мм1.6 м/с38 %
    21:00Облачно с прояснениями+25°C65 %712 мм1.5 м/с33 %
  • 15апреля
    Понедельник
    +20°
    +31°
    Практически безоблачно
    ВремяПогодаТемператураВлажностьДавлениеВетер, м/сВероятность осадков
    00:00Небольшая облачность+24°C71 %712 мм0.9 м/с38 %
    03:00Облачно с прояснениями+22°C78 %712 мм0.7 м/с25 %
    06:00Облачно с прояснениями+21°C78 %712 мм2.0 м/с22 %
    09:00Ясно и безоблачно+25°C57 %714 мм3.7 м/с27 %
    12:00Практически безоблачно+30°C43 %713 мм3.2 м/с28 %
    15:00Практически безоблачно+31°C40 %712 мм2.8 м/с34 %
    18:00Ясно и безоблачно+28°C44 %711 мм2.4 м/с34 %
    21:00Практически безоблачно+25°C54 %713 мм3.1 м/с38 %
  • 16апреля
    Вторник
    +20°
    +32°
    Небольшая облачность
    ВремяПогодаТемператураВлажностьДавлениеВетер, м/сВероятность осадков
    00:00Практически безоблачно+24°C60 %713 мм1.8 м/с29 %
    03:00Облачно с прояснениями+21°C72 %713 мм1.7 м/с22 %
    06:00Небольшая облачность+22°C78 %713 мм3.0 м/с24 %
    09:00Ясно и безоблачно+25°C67 %715 мм3.2 м/с29 %
    12:00Практически безоблачно+29°C46 %714 мм2.5 м/с24 %
    15:00Небольшая облачность+31°C38 %712 мм1.2 м/с40 %
    18:00Практически безоблачно+28°C50 %712 мм1.9 м/с37 %
    21:00Облачно с прояснениями+24°C62 %713 мм1.4 м/с43 %
Мы используем cookies
Соглашаюсь